sensor_id;sensor_type;location;lat;lon;timestamp;pressure;altitude;pressure_sealevel;temperature
65569;BMP180;52211;50.154;8.682;2023-04-25T00:00:09;99384.00;;;14.40
65569;BMP180;52211;50.154;8.682;2023-04-25T00:02:40;99370.00;;;14.40
65569;BMP180;52211;50.154;8.682;2023-04-25T00:05:08;99378.00;;;14.40
65569;BMP180;52211;50.154;8.682;2023-04-25T00:07:40;99375.00;;;14.40
65569;BMP180;52211;50.154;8.682;2023-04-25T00:10:12;99385.00;;;14.30
65569;BMP180;52211;50.154;8.682;2023-04-25T00:12:40;99382.00;;;14.30
65569;BMP180;52211;50.154;8.682;2023-04-25T00:15:11;99381.00;;;14.20
65569;BMP180;52211;50.154;8.682;2023-04-25T00:17:42;99381.00;;;14.20
65569;BMP180;52211;50.154;8.682;2023-04-25T00:20:10;99384.00;;;14.20
65569;BMP180;52211;50.154;8.682;2023-04-25T00:22:37;99385.00;;;14.20
65569;BMP180;52211;50.154;8.682;2023-04-25T00:25:06;99386.00;;;14.20
65569;BMP180;52211;50.154;8.682;2023-04-25T00:27:33;99395.00;;;14.20
65569;BMP180;52211;50.154;8.682;2023-04-25T00:30:06;99396.00;;;14.20
65569;BMP180;52211;50.154;8.682;2023-04-25T00:32:33;99395.00;;;14.20
65569;BMP180;52211;50.154;8.682;2023-04-25T00:35:05;99395.00;;;14.20
65569;BMP180;52211;50.154;8.682;2023-04-25T00:37:35;99396.00;;;14.30
65569;BMP180;52211;50.154;8.682;2023-04-25T00:40:05;99392.00;;;14.30
65569;BMP180;52211;50.154;8.682;2023-04-25T00:42:40;99383.00;;;14.30
65569;BMP180;52211;50.154;8.682;2023-04-25T00:45:14;99394.00;;;14.30
65569;BMP180;52211;50.154;8.682;2023-04-25T00:47:51;99388.00;;;14.30
65569;BMP180;52211;50.154;8.682;2023-04-25T00:50:25;99375.00;;;14.30
65569;BMP180;52211;50.154;8.682;2023-04-25T00:52:52;99377.00;;;14.30
65569;BMP180;52211;50.154;8.682;2023-04-25T00:55:19;99371.00;;;14.20
65569;BMP180;52211;50.154;8.682;2023-04-25T00:57:47;99371.00;;;14.20
65569;BMP180;52211;50.154;8.682;2023-04-25T01:00:19;99371.00;;;14.20
65569;BMP180;52211;50.154;8.682;2023-04-25T01:02:49;99376.00;;;14.20
65569;BMP180;52211;50.154;8.682;2023-04-25T01:05:17;99370.00;;;14.20
65569;BMP180;52211;50.154;8.682;2023-04-25T01:07:47;99369.00;;;14.20
65569;BMP180;52211;50.154;8.682;2023-04-25T01:10:14;99372.00;;;14.20
65569;BMP180;52211;50.154;8.682;2023-04-25T01:12:44;99376.00;;;14.20
65569;BMP180;52211;50.154;8.682;2023-04-25T01:15:13;99379.00;;;14.20
65569;BMP180;52211;50.154;8.682;2023-04-25T01:17:45;99374.00;;;14.20
65569;BMP180;52211;50.154;8.682;2023-04-25T01:20:16;99378.00;;;14.30
65569;BMP180;52211;50.154;8.682;2023-04-25T01:22:48;99372.00;;;14.30
65569;BMP180;52211;50.154;8.682;2023-04-25T01:25:20;99365.00;;;14.30
65569;BMP180;52211;50.154;8.682;2023-04-25T01:27:52;99361.00;;;14.30
65569;BMP180;52211;50.154;8.682;2023-04-25T01:30:19;99354.00;;;14.30
65569;BMP180;52211;50.154;8.682;2023-04-25T01:32:49;99349.00;;;14.30
65569;BMP180;52211;50.154;8.682;2023-04-25T01:35:19;99361.00;;;14.30
65569;BMP180;52211;50.154;8.682;2023-04-25T01:37:53;99364.00;;;14.40
65569;BMP180;52211;50.154;8.682;2023-04-25T01:40:23;99372.00;;;14.30
65569;BMP180;52211;50.154;8.682;2023-04-25T01:42:53;99362.00;;;14.30
65569;BMP180;52211;50.154;8.682;2023-04-25T01:45:25;99370.00;;;14.30
65569;BMP180;52211;50.154;8.682;2023-04-25T01:47:54;99368.00;;;14.30
65569;BMP180;52211;50.154;8.682;2023-04-25T01:50:23;99369.00;;;14.40
65569;BMP180;52211;50.154;8.682;2023-04-25T01:52:53;99370.00;;;14.40
65569;BMP180;52211;50.154;8.682;2023-04-25T01:55:26;99368.00;;;14.40
65569;BMP180;52211;50.154;8.682;2023-04-25T01:58:05;99381.00;;;14.40
65569;BMP180;52211;50.154;8.682;2023-04-25T02:00:59;99380.00;;;14.40
65569;BMP180;52211;50.154;8.682;2023-04-25T02:03:34;99370.00;;;14.40
65569;BMP180;52211;50.154;8.682;2023-04-25T02:06:06;99381.00;;;14.40
65569;BMP180;52211;50.154;8.682;2023-04-25T02:08:37;99377.00;;;14.40
65569;BMP180;52211;50.154;8.682;2023-04-25T02:11:04;99379.00;;;14.40
65569;BMP180;52211;50.154;8.682;2023-04-25T02:13:38;99377.00;;;14.40
65569;BMP180;52211;50.154;8.682;2023-04-25T02:16:25;99371.00;;;14.40
65569;BMP180;52211;50.154;8.682;2023-04-25T02:18:55;99372.00;;;14.40
65569;BMP180;52211;50.154;8.682;2023-04-25T02:21:26;99373.00;;;14.40
65569;BMP180;52211;50.154;8.682;2023-04-25T02:23:56;99365.00;;;14.40
65569;BMP180;52211;50.154;8.682;2023-04-25T02:26:28;99356.00;;;14.40
65569;BMP180;52211;50.154;8.682;2023-04-25T02:28:56;99363.00;;;14.40
65569;BMP180;52211;50.154;8.682;2023-04-25T02:31:23;99360.00;;;14.40
65569;BMP180;52211;50.154;8.682;2023-04-25T02:33:57;99360.00;;;14.40
65569;BMP180;52211;50.154;8.682;2023-04-25T02:36:27;99354.00;;;14.30
65569;BMP180;52211;50.154;8.682;2023-04-25T02:38:58;99357.00;;;14.30
65569;BMP180;52211;50.154;8.682;2023-04-25T02:41:28;99359.00;;;14.30
65569;BMP180;52211;50.154;8.682;2023-04-25T02:43:57;99358.00;;;14.30
65569;BMP180;52211;50.154;8.682;2023-04-25T02:46:24;99359.00;;;14.30
65569;BMP180;52211;50.154;8.682;2023-04-25T02:49:09;99362.00;;;14.30
65569;BMP180;52211;50.154;8.682;2023-04-25T02:51:36;99367.00;;;14.30
65569;BMP180;52211;50.154;8.682;2023-04-25T02:54:06;99362.00;;;14.30
65569;BMP180;52211;50.154;8.682;2023-04-25T02:56:37;99360.00;;;14.30
65569;BMP180;52211;50.154;8.682;2023-04-25T02:59:14;99364.00;;;14.30
65569;BMP180;52211;50.154;8.682;2023-04-25T03:01:43;99365.00;;;14.30
65569;BMP180;52211;50.154;8.682;2023-04-25T03:04:12;99360.00;;;14.30
65569;BMP180;52211;50.154;8.682;2023-04-25T03:06:42;99359.00;;;14.30
65569;BMP180;52211;50.154;8.682;2023-04-25T03:09:14;99373.00;;;14.20
65569;BMP180;52211;50.154;8.682;2023-04-25T03:11:45;99367.00;;;14.20
65569;BMP180;52211;50.154;8.682;2023-04-25T03:14:14;99358.00;;;14.20
65569;BMP180;52211;50.154;8.682;2023-04-25T03:16:41;99369.00;;;14.20
65569;BMP180;52211;50.154;8.682;2023-04-25T03:19:08;99363.00;;;14.20
65569;BMP180;52211;50.154;8.682;2023-04-25T03:21:36;99368.00;;;14.20
65569;BMP180;52211;50.154;8.682;2023-04-25T03:24:05;99367.00;;;14.20
65569;BMP180;52211;50.154;8.682;2023-04-25T03:26:36;99371.00;;;14.20
65569;BMP180;52211;50.154;8.682;2023-04-25T03:29:05;99364.00;;;14.20
65569;BMP180;52211;50.154;8.682;2023-04-25T03:31:33;99358.00;;;14.20
65569;BMP180;52211;50.154;8.682;2023-04-25T03:34:00;99364.00;;;14.30
65569;BMP180;52211;50.154;8.682;2023-04-25T03:36:27;99359.00;;;14.30
65569;BMP180;52211;50.154;8.682;2023-04-25T03:38:58;99368.00;;;14.30
65569;BMP180;52211;50.154;8.682;2023-04-25T03:41:30;99363.00;;;14.30
65569;BMP180;52211;50.154;8.682;2023-04-25T03:44:02;99372.00;;;14.30
65569;BMP180;52211;50.154;8.682;2023-04-25T03:46:36;99376.00;;;14.30
65569;BMP180;52211;50.154;8.682;2023-04-25T03:49:05;99374.00;;;14.30
65569;BMP180;52211;50.154;8.682;2023-04-25T03:51:51;99374.00;;;14.30
65569;BMP180;52211;50.154;8.682;2023-04-25T03:54:18;99375.00;;;14.30
65569;BMP180;52211;50.154;8.682;2023-04-25T03:56:56;99383.00;;;14.30
65569;BMP180;52211;50.154;8.682;2023-04-25T03:59:26;99378.00;;;14.30
65569;BMP180;52211;50.154;8.682;2023-04-25T04:01:53;99373.00;;;14.30
65569;BMP180;52211;50.154;8.682;2023-04-25T04:04:25;99372.00;;;14.30
65569;BMP180;52211;50.154;8.682;2023-04-25T04:06:52;99375.00;;;14.30
65569;BMP180;52211;50.154;8.682;2023-04-25T04:09:30;99382.00;;;14.30
65569;BMP180;52211;50.154;8.682;2023-04-25T04:12:02;99386.00;;;14.30
65569;BMP180;52211;50.154;8.682;2023-04-25T04:14:31;99394.00;;;14.30
65569;BMP180;52211;50.154;8.682;2023-04-25T04:16:58;99400.00;;;14.30
65569;BMP180;52211;50.154;8.682;2023-04-25T04:19:28;99394.00;;;14.30
65569;BMP180;52211;50.154;8.682;2023-04-25T04:22:09;99396.00;;;14.20
65569;BMP180;52211;50.154;8.682;2023-04-25T04:24:39;99410.00;;;14.20
65569;BMP180;52211;50.154;8.682;2023-04-25T04:27:13;99416.00;;;14.20
65569;BMP180;52211;50.154;8.682;2023-04-25T04:30:00;99423.00;;;14.10
65569;BMP180;52211;50.154;8.682;2023-04-25T04:32:36;99409.00;;;14.10
65569;BMP180;52211;50.154;8.682;2023-04-25T04:35:07;99413.00;;;14.10
65569;BMP180;52211;50.154;8.682;2023-04-25T04:37:38;99421.00;;;14.00
65569;BMP180;52211;50.154;8.682;2023-04-25T04:40:09;99426.00;;;14.00
65569;BMP180;52211;50.154;8.682;2023-04-25T04:42:48;99434.00;;;13.90
65569;BMP180;52211;50.154;8.682;2023-04-25T04:45:25;99441.00;;;13.90
65569;BMP180;52211;50.154;8.682;2023-04-25T04:48:23;99437.00;;;13.80
65569;BMP180;52211;50.154;8.682;2023-04-25T04:51:18;99445.00;;;13.70
65569;BMP180;52211;50.154;8.682;2023-04-25T04:54:09;99439.00;;;13.60
65569;BMP180;52211;50.154;8.682;2023-04-25T04:57:04;99441.00;;;13.60
65569;BMP180;52211;50.154;8.682;2023-04-25T04:59:52;99445.00;;;13.60
65569;BMP180;52211;50.154;8.682;2023-04-25T05:02:41;99451.00;;;13.60
65569;BMP180;52211;50.154;8.682;2023-04-25T05:05:31;99451.00;;;13.50
65569;BMP180;52211;50.154;8.682;2023-04-25T05:08:18;99458.00;;;13.50
65569;BMP180;52211;50.154;8.682;2023-04-25T05:10:56;99465.00;;;13.40
65569;BMP180;52211;50.154;8.682;2023-04-25T05:13:53;99465.00;;;13.40
65569;BMP180;52211;50.154;8.682;2023-04-25T05:16:40;99467.00;;;13.40
65569;BMP180;52211;50.154;8.682;2023-04-25T05:19:19;99469.00;;;13.40
65569;BMP180;52211;50.154;8.682;2023-04-25T05:22:02;99466.00;;;13.40
65569;BMP180;52211;50.154;8.682;2023-04-25T05:24:59;99473.00;;;13.40
65569;BMP180;52211;50.154;8.682;2023-04-25T05:27:57;99474.00;;;13.40
65569;BMP180;52211;50.154;8.682;2023-04-25T05:30:40;99468.00;;;13.40
65569;BMP180;52211;50.154;8.682;2023-04-25T05:33:36;99476.00;;;13.40
65569;BMP180;52211;50.154;8.682;2023-04-25T05:36:07;99471.00;;;13.30
65569;BMP180;52211;50.154;8.682;2023-04-25T05:38:37;99484.00;;;13.40
65569;BMP180;52211;50.154;8.682;2023-04-25T05:41:06;99482.00;;;13.40
65569;BMP180;52211;50.154;8.682;2023-04-25T05:44:07;99485.00;;;13.50
65569;BMP180;52211;50.154;8.682;2023-04-25T05:46:49;99478.00;;;13.50
65569;BMP180;52211;50.154;8.682;2023-04-25T05:49:51;99481.00;;;13.50
65569;BMP180;52211;50.154;8.682;2023-04-25T05:52:45;99489.00;;;13.60
65569;BMP180;52211;50.154;8.682;2023-04-25T05:55:32;99480.00;;;13.60
65569;BMP180;52211;50.154;8.682;2023-04-25T05:58:05;99485.00;;;13.60
65569;BMP180;52211;50.154;8.682;2023-04-25T06:00:33;99485.00;;;13.70
65569;BMP180;52211;50.154;8.682;2023-04-25T06:03:05;99488.00;;;13.70
65569;BMP180;52211;50.154;8.682;2023-04-25T06:05:35;99485.00;;;13.70
65569;BMP180;52211;50.154;8.682;2023-04-25T06:08:06;99487.00;;;13.70
65569;BMP180;52211;50.154;8.682;2023-04-25T06:10:37;99486.00;;;13.80
65569;BMP180;52211;50.154;8.682;2023-04-25T06:13:06;99496.00;;;13.80
65569;BMP180;52211;50.154;8.682;2023-04-25T06:15:36;99492.00;;;13.80
65569;BMP180;52211;50.154;8.682;2023-04-25T06:18:06;99489.00;;;13.90
65569;BMP180;52211;50.154;8.682;2023-04-25T06:20:38;99489.00;;;13.90
65569;BMP180;52211;50.154;8.682;2023-04-25T06:23:09;99492.00;;;14.00
65569;BMP180;52211;50.154;8.682;2023-04-25T06:25:47;99485.00;;;14.00
65569;BMP180;52211;50.154;8.682;2023-04-25T06:28:16;99485.00;;;14.10
65569;BMP180;52211;50.154;8.682;2023-04-25T06:30:46;99487.00;;;14.10
65569;BMP180;52211;50.154;8.682;2023-04-25T06:33:16;99492.00;;;14.10
65569;BMP180;52211;50.154;8.682;2023-04-25T06:35:46;99488.00;;;14.20
65569;BMP180;52211;50.154;8.682;2023-04-25T06:38:18;99492.00;;;14.20
65569;BMP180;52211;50.154;8.682;2023-04-25T06:40:52;99495.00;;;14.20
65569;BMP180;52211;50.154;8.682;2023-04-25T06:43:22;99492.00;;;14.20
65569;BMP180;52211;50.154;8.682;2023-04-25T06:45:57;99489.00;;;14.30
65569;BMP180;52211;50.154;8.682;2023-04-25T06:48:28;99490.00;;;14.30
65569;BMP180;52211;50.154;8.682;2023-04-25T06:51:00;99492.00;;;14.30
65569;BMP180;52211;50.154;8.682;2023-04-25T06:53:27;99484.00;;;14.30
65569;BMP180;52211;50.154;8.682;2023-04-25T06:56:01;99494.00;;;14.30
65569;BMP180;52211;50.154;8.682;2023-04-25T06:58:43;99497.00;;;14.40
65569;BMP180;52211;50.154;8.682;2023-04-25T07:01:19;99497.00;;;14.40
65569;BMP180;52211;50.154;8.682;2023-04-25T07:03:48;99503.00;;;14.40
65569;BMP180;52211;50.154;8.682;2023-04-25T07:06:22;99511.00;;;14.40
65569;BMP180;52211;50.154;8.682;2023-04-25T07:08:49;99504.00;;;14.50
65569;BMP180;52211;50.154;8.682;2023-04-25T07:11:21;99500.00;;;14.50
65569;BMP180;52211;50.154;8.682;2023-04-25T07:13:50;99512.00;;;14.50
65569;BMP180;52211;50.154;8.682;2023-04-25T07:16:22;99517.00;;;14.50
65569;BMP180;52211;50.154;8.682;2023-04-25T07:18:50;99511.00;;;14.60
65569;BMP180;52211;50.154;8.682;2023-04-25T07:21:24;99513.00;;;14.60
65569;BMP180;52211;50.154;8.682;2023-04-25T07:23:55;99514.00;;;14.60
65569;BMP180;52211;50.154;8.682;2023-04-25T07:26:32;99516.00;;;14.60
65569;BMP180;52211;50.154;8.682;2023-04-25T07:29:21;99516.00;;;14.70
65569;BMP180;52211;50.154;8.682;2023-04-25T07:31:53;99524.00;;;14.70
65569;BMP180;52211;50.154;8.682;2023-04-25T07:34:21;99519.00;;;14.70
65569;BMP180;52211;50.154;8.682;2023-04-25T07:36:55;99523.00;;;14.80
65569;BMP180;52211;50.154;8.682;2023-04-25T07:39:26;99529.00;;;14.80
65569;BMP180;52211;50.154;8.682;2023-04-25T07:41:53;99532.00;;;14.80
65569;BMP180;52211;50.154;8.682;2023-04-25T07:44:24;99528.00;;;14.80
65569;BMP180;52211;50.154;8.682;2023-04-25T07:46:52;99532.00;;;14.90
65569;BMP180;52211;50.154;8.682;2023-04-25T07:49:20;99527.00;;;14.90
65569;BMP180;52211;50.154;8.682;2023-04-25T07:51:48;99540.00;;;15.00
65569;BMP180;52211;50.154;8.682;2023-04-25T07:54:18;99537.00;;;15.00
65569;BMP180;52211;50.154;8.682;2023-04-25T07:56:55;99531.00;;;15.00
65569;BMP180;52211;50.154;8.682;2023-04-25T07:59:29;99543.00;;;15.10
65569;BMP180;52211;50.154;8.682;2023-04-25T08:02:01;99539.00;;;15.10
65569;BMP180;52211;50.154;8.682;2023-04-25T08:04:30;99547.00;;;15.20
65569;BMP180;52211;50.154;8.682;2023-04-25T08:07:04;99548.00;;;15.30
65569;BMP180;52211;50.154;8.682;2023-04-25T08:09:43;99551.00;;;15.40
65569;BMP180;52211;50.154;8.682;2023-04-25T08:12:17;99560.00;;;15.40
65569;BMP180;52211;50.154;8.682;2023-04-25T08:14:48;99567.00;;;15.50
65569;BMP180;52211;50.154;8.682;2023-04-25T08:17:15;99572.00;;;15.50
65569;BMP180;52211;50.154;8.682;2023-04-25T08:19:42;99569.00;;;15.60
65569;BMP180;52211;50.154;8.682;2023-04-25T08:22:17;99581.00;;;15.60
65569;BMP180;52211;50.154;8.682;2023-04-25T08:24:53;99582.00;;;15.60
65569;BMP180;52211;50.154;8.682;2023-04-25T08:27:25;99589.00;;;15.60
65569;BMP180;52211;50.154;8.682;2023-04-25T08:29:52;99597.00;;;15.60
65569;BMP180;52211;50.154;8.682;2023-04-25T08:32:22;99596.00;;;15.70
65569;BMP180;52211;50.154;8.682;2023-04-25T08:35:17;99603.00;;;15.70
65569;BMP180;52211;50.154;8.682;2023-04-25T08:37:46;99597.00;;;15.70
65569;BMP180;52211;50.154;8.682;2023-04-25T08:40:16;99591.00;;;15.70
65569;BMP180;52211;50.154;8.682;2023-04-25T08:42:54;99609.00;;;15.80
65569;BMP180;52211;50.154;8.682;2023-04-25T08:45:25;99606.00;;;15.90
65569;BMP180;52211;50.154;8.682;2023-04-25T08:47:56;99605.00;;;15.90
65569;BMP180;52211;50.154;8.682;2023-04-25T08:50:24;99609.00;;;15.90
65569;BMP180;52211;50.154;8.682;2023-04-25T08:52:56;99598.00;;;16.00
65569;BMP180;52211;50.154;8.682;2023-04-25T08:55:28;99611.00;;;16.10
65569;BMP180;52211;50.154;8.682;2023-04-25T08:58:00;99607.00;;;16.20
65569;BMP180;52211;50.154;8.682;2023-04-25T09:00:28;99603.00;;;16.30
65569;BMP180;52211;50.154;8.682;2023-04-25T09:02:57;99607.00;;;16.40
65569;BMP180;52211;50.154;8.682;2023-04-25T09:05:32;99625.00;;;16.40
65569;BMP180;52211;50.154;8.682;2023-04-25T09:08:00;99621.00;;;16.40
65569;BMP180;52211;50.154;8.682;2023-04-25T09:10:30;99624.00;;;16.40
65569;BMP180;52211;50.154;8.682;2023-04-25T09:13:14;99626.00;;;16.40
65569;BMP180;52211;50.154;8.682;2023-04-25T09:16:14;99625.00;;;16.40
65569;BMP180;52211;50.154;8.682;2023-04-25T09:19:26;99629.00;;;16.40
65569;BMP180;52211;50.154;8.682;2023-04-25T09:22:15;99631.00;;;16.40
65569;BMP180;52211;50.154;8.682;2023-04-25T09:24:47;99641.00;;;16.50
65569;BMP180;52211;50.154;8.682;2023-04-25T09:27:23;99636.00;;;16.60
65569;BMP180;52211;50.154;8.682;2023-04-25T09:30:06;99638.00;;;16.60
65569;BMP180;52211;50.154;8.682;2023-04-25T09:32:57;99645.00;;;16.50
65569;BMP180;52211;50.154;8.682;2023-04-25T09:35:27;99647.00;;;16.50
65569;BMP180;52211;50.154;8.682;2023-04-25T09:37:59;99652.00;;;16.50
65569;BMP180;52211;50.154;8.682;2023-04-25T09:40:47;99655.00;;;16.50
65569;BMP180;52211;50.154;8.682;2023-04-25T09:43:25;99650.00;;;16.50
65569;BMP180;52211;50.154;8.682;2023-04-25T09:45:56;99651.00;;;16.50
65569;BMP180;52211;50.154;8.682;2023-04-25T09:48:29;99655.00;;;16.60
65569;BMP180;52211;50.154;8.682;2023-04-25T09:51:12;99653.00;;;16.70
65569;BMP180;52211;50.154;8.682;2023-04-25T09:53:46;99660.00;;;16.80
65569;BMP180;52211;50.154;8.682;2023-04-25T09:56:46;99661.00;;;16.90
65569;BMP180;52211;50.154;8.682;2023-04-25T09:59:21;99658.00;;;17.00
65569;BMP180;52211;50.154;8.682;2023-04-25T10:01:53;99663.00;;;17.10
65569;BMP180;52211;50.154;8.682;2023-04-25T10:04:34;99661.00;;;17.20
65569;BMP180;52211;50.154;8.682;2023-04-25T10:07:08;99662.00;;;17.30
65569;BMP180;52211;50.154;8.682;2023-04-25T10:09:42;99665.00;;;17.40
65569;BMP180;52211;50.154;8.682;2023-04-25T10:12:10;99667.00;;;17.40
65569;BMP180;52211;50.154;8.682;2023-04-25T10:14:45;99670.00;;;17.40
65569;BMP180;52211;50.154;8.682;2023-04-25T10:17:13;99672.00;;;17.40
65569;BMP180;52211;50.154;8.682;2023-04-25T10:19:41;99669.00;;;17.40
65569;BMP180;52211;50.154;8.682;2023-04-25T10:22:36;99673.00;;;17.30
65569;BMP180;52211;50.154;8.682;2023-04-25T10:25:07;99680.00;;;17.20
65569;BMP180;52211;50.154;8.682;2023-04-25T10:27:35;99678.00;;;17.20
65569;BMP180;52211;50.154;8.682;2023-04-25T10:30:13;99692.00;;;17.10
65569;BMP180;52211;50.154;8.682;2023-04-25T10:32:47;99692.00;;;17.00
65569;BMP180;52211;50.154;8.682;2023-04-25T10:35:25;99697.00;;;17.00
65569;BMP180;52211;50.154;8.682;2023-04-25T10:40:31;99703.00;;;16.90
65569;BMP180;52211;50.154;8.682;2023-04-25T10:46:04;99703.00;;;16.80
65569;BMP180;52211;50.154;8.682;2023-04-25T10:48:52;99707.00;;;16.80
65569;BMP180;52211;50.154;8.682;2023-04-25T10:51:27;99707.00;;;16.70
65569;BMP180;52211;50.154;8.682;2023-04-25T10:54:08;99710.00;;;16.70
65569;BMP180;52211;50.154;8.682;2023-04-25T11:01:53;99711.00;;;16.70
65569;BMP180;52211;50.154;8.682;2023-04-25T11:04:33;99714.00;;;16.70
65569;BMP180;52211;50.154;8.682;2023-04-25T11:10:06;99725.00;;;16.70
65569;BMP180;52211;50.154;8.682;2023-04-25T11:12:40;99719.00;;;16.70
65569;BMP180;52211;50.154;8.682;2023-04-25T11:15:10;99714.00;;;16.80
65569;BMP180;52211;50.154;8.682;2023-04-25T11:17:39;99716.00;;;16.80
65569;BMP180;52211;50.154;8.682;2023-04-25T11:20:08;99711.00;;;16.80
65569;BMP180;52211;50.154;8.682;2023-04-25T11:22:39;99716.00;;;16.80
65569;BMP180;52211;50.154;8.682;2023-04-25T11:25:14;99712.00;;;16.80
65569;BMP180;52211;50.154;8.682;2023-04-25T11:27:56;99723.00;;;16.70
65569;BMP180;52211;50.154;8.682;2023-04-25T11:30:28;99714.00;;;16.70
65569;BMP180;52211;50.154;8.682;2023-04-25T11:32:57;99722.00;;;16.70
65569;BMP180;52211;50.154;8.682;2023-04-25T11:35:25;99716.00;;;16.80
65569;BMP180;52211;50.154;8.682;2023-04-25T11:37:52;99711.00;;;16.90
65569;BMP180;52211;50.154;8.682;2023-04-25T11:40:19;99707.00;;;17.10
65569;BMP180;52211;50.154;8.682;2023-04-25T11:42:47;99717.00;;;17.40
65569;BMP180;52211;50.154;8.682;2023-04-25T11:45:22;99719.00;;;17.50
65569;BMP180;52211;50.154;8.682;2023-04-25T11:47:53;99718.00;;;17.60
65569;BMP180;52211;50.154;8.682;2023-04-25T11:50:30;99721.00;;;17.60
65569;BMP180;52211;50.154;8.682;2023-04-25T11:53:00;99722.00;;;17.60
65569;BMP180;52211;50.154;8.682;2023-04-25T11:55:30;99730.00;;;17.40
65569;BMP180;52211;50.154;8.682;2023-04-25T11:58:03;99728.00;;;17.40
65569;BMP180;52211;50.154;8.682;2023-04-25T12:00:35;99734.00;;;17.40
65569;BMP180;52211;50.154;8.682;2023-04-25T12:03:04;99746.00;;;17.40
65569;BMP180;52211;50.154;8.682;2023-04-25T12:05:38;99734.00;;;17.40
65569;BMP180;52211;50.154;8.682;2023-04-25T12:08:13;99746.00;;;17.40
65569;BMP180;52211;50.154;8.682;2023-04-25T12:10:47;99740.00;;;17.40
65569;BMP180;52211;50.154;8.682;2023-04-25T12:13:25;99748.00;;;17.30
65569;BMP180;52211;50.154;8.682;2023-04-25T12:16:00;99742.00;;;17.20
65569;BMP180;52211;50.154;8.682;2023-04-25T12:18:27;99751.00;;;17.20
65569;BMP180;52211;50.154;8.682;2023-04-25T12:21:04;99749.00;;;17.20
65569;BMP180;52211;50.154;8.682;2023-04-25T12:23:31;99762.00;;;17.10
65569;BMP180;52211;50.154;8.682;2023-04-25T12:25:58;99757.00;;;17.00
65569;BMP180;52211;50.154;8.682;2023-04-25T12:28:25;99748.00;;;16.90
65569;BMP180;52211;50.154;8.682;2023-04-25T12:33:33;99755.00;;;16.80
65569;BMP180;52211;50.154;8.682;2023-04-25T12:36:05;99754.00;;;16.80
65569;BMP180;52211;50.154;8.682;2023-04-25T12:38:42;99753.00;;;16.80
65569;BMP180;52211;50.154;8.682;2023-04-25T12:41:09;99759.00;;;16.80
65569;BMP180;52211;50.154;8.682;2023-04-25T12:43:39;99765.00;;;16.80
65569;BMP180;52211;50.154;8.682;2023-04-25T12:46:08;99768.00;;;16.80
65569;BMP180;52211;50.154;8.682;2023-04-25T12:48:40;99767.00;;;16.90
65569;BMP180;52211;50.154;8.682;2023-04-25T12:51:15;99759.00;;;16.90
65569;BMP180;52211;50.154;8.682;2023-04-25T12:53:42;99758.00;;;17.00
65569;BMP180;52211;50.154;8.682;2023-04-25T12:56:11;99763.00;;;17.10
65569;BMP180;52211;50.154;8.682;2023-04-25T12:58:38;99753.00;;;17.20
65569;BMP180;52211;50.154;8.682;2023-04-25T13:01:10;99763.00;;;17.30
65569;BMP180;52211;50.154;8.682;2023-04-25T13:03:40;99773.00;;;17.40
65569;BMP180;52211;50.154;8.682;2023-04-25T13:06:07;99773.00;;;17.50
65569;BMP180;52211;50.154;8.682;2023-04-25T13:08:36;99762.00;;;17.60
65569;BMP180;52211;50.154;8.682;2023-04-25T13:11:07;99771.00;;;17.60
65569;BMP180;52211;50.154;8.682;2023-04-25T13:13:37;99768.00;;;17.70
65569;BMP180;52211;50.154;8.682;2023-04-25T13:16:04;99766.00;;;17.80
65569;BMP180;52211;50.154;8.682;2023-04-25T13:18:34;99772.00;;;17.80
65569;BMP180;52211;50.154;8.682;2023-04-25T13:21:01;99768.00;;;17.90
65569;BMP180;52211;50.154;8.682;2023-04-25T13:23:31;99764.00;;;17.90
65569;BMP180;52211;50.154;8.682;2023-04-25T13:30:52;99767.00;;;17.90
65569;BMP180;52211;50.154;8.682;2023-04-25T13:33:20;99772.00;;;17.90
65569;BMP180;52211;50.154;8.682;2023-04-25T13:35:49;99770.00;;;17.90
65569;BMP180;52211;50.154;8.682;2023-04-25T13:38:25;99778.00;;;17.90
65569;BMP180;52211;50.154;8.682;2023-04-25T13:40:54;99779.00;;;17.90
65569;BMP180;52211;50.154;8.682;2023-04-25T13:43:22;99768.00;;;17.90
65569;BMP180;52211;50.154;8.682;2023-04-25T13:45:52;99778.00;;;17.90
65569;BMP180;52211;50.154;8.682;2023-04-25T13:48:21;99777.00;;;17.80
65569;BMP180;52211;50.154;8.682;2023-04-25T13:50:51;99778.00;;;17.80
65569;BMP180;52211;50.154;8.682;2023-04-25T13:53:20;99773.00;;;17.80
65569;BMP180;52211;50.154;8.682;2023-04-25T13:55:48;99778.00;;;17.80
65569;BMP180;52211;50.154;8.682;2023-04-25T13:58:17;99785.00;;;17.80
65569;BMP180;52211;50.154;8.682;2023-04-25T14:00:46;99786.00;;;17.90
65569;BMP180;52211;50.154;8.682;2023-04-25T14:03:18;99786.00;;;17.90
65569;BMP180;52211;50.154;8.682;2023-04-25T14:05:47;99783.00;;;18.00
65569;BMP180;52211;50.154;8.682;2023-04-25T14:08:20;99783.00;;;18.10
65569;BMP180;52211;50.154;8.682;2023-04-25T14:10:49;99780.00;;;18.20
65569;BMP180;52211;50.154;8.682;2023-04-25T14:13:16;99786.00;;;18.40
65569;BMP180;52211;50.154;8.682;2023-04-25T14:15:43;99781.00;;;18.40
65569;BMP180;52211;50.154;8.682;2023-04-25T14:18:10;99787.00;;;18.50
65569;BMP180;52211;50.154;8.682;2023-04-25T14:20:40;99781.00;;;18.60
65569;BMP180;52211;50.154;8.682;2023-04-25T14:23:09;99780.00;;;18.60
65569;BMP180;52211;50.154;8.682;2023-04-25T14:25:36;99792.00;;;18.60
65569;BMP180;52211;50.154;8.682;2023-04-25T14:28:03;99786.00;;;18.60
65569;BMP180;52211;50.154;8.682;2023-04-25T14:30:32;99779.00;;;18.60
65569;BMP180;52211;50.154;8.682;2023-04-25T14:32:59;99785.00;;;18.60
65569;BMP180;52211;50.154;8.682;2023-04-25T14:35:27;99788.00;;;18.60
65569;BMP180;52211;50.154;8.682;2023-04-25T14:37:56;99788.00;;;18.50
65569;BMP180;52211;50.154;8.682;2023-04-25T14:40:28;99783.00;;;18.50
65569;BMP180;52211;50.154;8.682;2023-04-25T14:42:57;99796.00;;;18.40
65569;BMP180;52211;50.154;8.682;2023-04-25T14:45:26;99797.00;;;18.40
65569;BMP180;52211;50.154;8.682;2023-04-25T14:47:58;99801.00;;;18.30
65569;BMP180;52211;50.154;8.682;2023-04-25T14:50:27;99804.00;;;18.30
65569;BMP180;52211;50.154;8.682;2023-04-25T14:52:56;99801.00;;;18.20
65569;BMP180;52211;50.154;8.682;2023-04-25T14:55:30;99802.00;;;18.20
65569;BMP180;52211;50.154;8.682;2023-04-25T14:57:57;99810.00;;;18.10
65569;BMP180;52211;50.154;8.682;2023-04-25T15:00:24;99817.00;;;18.10
65569;BMP180;52211;50.154;8.682;2023-04-25T15:02:54;99810.00;;;18.00